Time;durP1;ratioP1;P1;durP2;ratioP2;P2;SDS_P1;SDS_P2;PMS_P1;PMS_P2;Temp;Humidity;BMP_temperature;BMP_pressure;BME280_temperature;BME280_humidity;BME280_pressure;Samples;Min_cycle;Max_cycle;Signal;HPM_P1;HPM_P2
2023/12/29 00:01:59;;;;;;;1.83;1.73;;;8.90;99.90;;;;;;5034056;28;20211;-58
2023/12/29 00:04:27;;;;;;;2.63;1.77;;;8.90;99.90;;;;;;5025819;28;20313;-58
2023/12/29 00:06:54;;;;;;;2.22;1.98;;;8.80;99.90;;;;;;5033395;28;20252;-58
2023/12/29 00:09:29;;;;;;;3.60;1.60;;;8.70;99.90;;;;;;5033829;28;20206;-58
2023/12/29 00:11:57;;;;;;;3.13;1.73;;;8.70;99.90;;;;;;5033558;28;20242;-58
2023/12/29 00:14:27;;;;;;;1.80;1.70;;;8.60;99.90;;;;;;5033308;28;20297;-58
2023/12/29 00:16:57;;;;;;;1.95;1.85;;;8.60;99.90;;;;;;5033448;28;20561;-55
2023/12/29 00:19:25;;;;;;;2.08;1.30;;;8.60;99.90;;;;;;5033634;28;20280;-56
2023/12/29 00:21:53;;;;;;;2.53;1.70;;;8.70;99.90;;;;;;5033502;28;20216;-55
2023/12/29 00:24:21;;;;;;;2.22;1.25;;;8.60;99.90;;;;;;5031666;28;20321;-55
2023/12/29 00:26:49;;;;;;;1.27;1.27;;;8.60;99.90;;;;;;5032945;28;20643;-62
2023/12/29 00:29:17;;;;;;;2.88;1.33;;;8.60;99.90;;;;;;5033166;28;20286;-61
2023/12/29 00:31:46;;;;;;;2.35;1.40;;;8.60;99.90;;;;;;5033174;28;20203;-61
2023/12/29 00:34:14;;;;;;;2.35;1.10;;;8.50;99.90;;;;;;5032540;28;20644;-61
2023/12/29 00:36:42;;;;;;;1.52;1.20;;;8.50;99.90;;;;;;5032892;28;20567;-61
2023/12/29 00:39:10;;;;;;;1.00;1.00;;;8.50;99.90;;;;;;5032965;28;20242;-61
2023/12/29 00:41:39;;;;;;;1.65;1.40;;;8.50;99.90;;;;;;5031784;28;20210;-61
2023/12/29 00:44:07;;;;;;;1.65;1.38;;;8.50;99.90;;;;;;5033009;28;20237;-62
2023/12/29 00:46:36;;;;;;;2.15;1.30;;;8.50;99.90;;;;;;5032859;28;20261;-62
2023/12/29 00:49:05;;;;;;;1.10;1.10;;;8.50;99.90;;;;;;5032914;28;20296;-58
2023/12/29 00:51:33;;;;;;;2.15;1.63;;;8.60;99.90;;;;;;5032744;28;20202;-62
2023/12/29 00:54:01;;;;;;;1.02;1.02;;;8.60;99.90;;;;;;5032932;28;20245;-62
2023/12/29 00:56:29;;;;;;;2.78;1.40;;;8.50;99.90;;;;;;5024651;28;20209;-62
2023/12/29 00:58:57;;;;;;;1.27;1.13;;;8.60;99.90;;;;;;5032710;28;20241;-61
2023/12/29 01:01:25;;;;;;;1.40;1.33;;;8.60;99.90;;;;;;5032690;28;20211;-61
2023/12/29 01:03:54;;;;;;;1.63;1.30;;;8.60;99.90;;;;;;5032362;28;20277;-61
2023/12/29 01:06:24;;;;;;;4.10;1.42;;;8.60;99.90;;;;;;5032409;28;20218;-61
2023/12/29 01:08:51;;;;;;;2.95;1.42;;;8.60;99.90;;;;;;5032856;28;20289;-60
2023/12/29 01:11:19;;;;;;;1.48;1.48;;;8.60;99.90;;;;;;5032713;28;20207;-60
2023/12/29 01:13:47;;;;;;;1.50;1.40;;;8.60;99.90;;;;;;5032460;28;20666;-60
2023/12/29 01:16:15;;;;;;;3.53;1.70;;;8.70;99.90;;;;;;5031903;28;20668;-59
2023/12/29 01:18:43;;;;;;;1.60;1.48;;;8.60;99.90;;;;;;5031819;28;20207;-56
2023/12/29 01:21:11;;;;;;;1.30;1.25;;;8.60;99.90;;;;;;5032497;28;20242;-61
2023/12/29 01:23:40;;;;;;;2.35;1.30;;;8.50;99.90;;;;;;5032461;28;20754;-61
2023/12/29 01:26:08;;;;;;;1.58;1.48;;;8.50;99.90;;;;;;5032022;28;20230;-62
2023/12/29 01:28:36;;;;;;;1.70;1.52;;;8.50;99.90;;;;;;5032224;28;20241;-62
2023/12/29 01:31:04;;;;;;;1.30;1.20;;;8.50;99.90;;;;;;5032077;28;20211;-61
2023/12/29 01:33:32;;;;;;;1.48;1.30;;;8.50;99.90;;;;;;5030184;28;20262;-62
2023/12/29 01:36:00;;;;;;;1.55;1.27;;;8.50;99.90;;;;;;5031680;28;20748;-61
2023/12/29 01:38:42;;;;;;;1.73;1.60;;;8.50;99.90;;;;;;5025325;28;20206;-57
2023/12/29 01:41:10;;;;;;;2.63;1.25;;;8.50;99.90;;;;;;5031917;28;20209;-55
2023/12/29 01:44:15;;;;;;;3.50;1.88;;;8.50;99.90;;;;;;5032028;28;20219;-56
2023/12/29 01:46:43;;;;;;;3.13;1.25;;;8.50;99.90;;;;;;5025198;28;20312;-60
2023/12/29 01:49:12;;;;;;;2.55;1.63;;;8.50;99.90;;;;;;5031825;28;20206;-56
2023/12/29 01:51:40;;;;;;;1.30;1.30;;;8.60;99.90;;;;;;5028777;28;20212;-57
2023/12/29 01:54:09;;;;;;;1.30;1.20;;;8.60;99.90;;;;;;5025514;28;20677;-57
2023/12/29 01:56:37;;;;;;;4.57;1.67;;;8.60;99.90;;;;;;5031528;28;20230;-55
2023/12/29 01:59:05;;;;;;;2.22;1.27;;;8.60;99.90;;;;;;5031825;28;20295;-56
2023/12/29 02:01:42;;;;;;;1.02;1.00;;;8.60;99.90;;;;;;5025750;28;20210;-60
2023/12/29 02:04:10;;;;;;;1.38;1.27;;;8.60;99.90;;;;;;5031144;28;20309;-57
2023/12/29 02:06:38;;;;;;;1.05;0.98;;;8.60;99.90;;;;;;5030973;28;20258;-55
2023/12/29 02:09:06;;;;;;;2.88;1.30;;;8.70;99.90;;;;;;5029858;28;20214;-58
2023/12/29 02:11:36;;;;;;;1.40;1.40;;;8.70;99.90;;;;;;5024671;28;20206;-56
2023/12/29 02:14:04;;;;;;;2.40;1.15;;;8.70;99.90;;;;;;5026309;28;20227;-56
2023/12/29 02:16:36;;;;;;;2.40;1.35;;;8.70;99.90;;;;;;5030484;28;20661;-57
2023/12/29 02:19:17;;;;;;;3.65;0.90;;;8.70;99.90;;;;;;5031541;28;20257;-58
2023/12/29 02:21:45;;;;;;;1.83;1.20;;;8.70;99.90;;;;;;5024753;28;20206;-57
2023/12/29 02:24:13;;;;;;;1.50;1.40;;;8.80;99.90;;;;;;5031598;28;20227;-56
2023/12/29 02:26:42;;;;;;;4.18;1.58;;;8.80;99.90;;;;;;5031271;28;20257;-54
2023/12/29 02:29:10;;;;;;;1.50;1.40;;;8.80;99.90;;;;;;5030423;28;20210;-58
2023/12/29 02:31:38;;;;;;;4.00;1.70;;;8.90;99.90;;;;;;5029145;28;20241;-60
2023/12/29 02:34:06;;;;;;;1.42;1.30;;;8.90;99.90;;;;;;5028395;28;20642;-58
2023/12/29 02:36:42;;;;;;;1.17;1.17;;;8.80;99.90;;;;;;5024139;28;20199;-57
2023/12/29 02:39:10;;;;;;;1.35;1.17;;;8.80;99.90;;;;;;5030639;28;20604;-58
2023/12/29 02:41:39;;;;;;;2.80;1.40;;;8.80;99.90;;;;;;5030971;28;20203;-59
2023/12/29 02:44:08;;;;;;;3.33;1.38;;;8.80;99.90;;;;;;5031366;28;20292;-60
2023/12/29 02:46:35;;;;;;;1.42;1.13;;;8.80;99.90;;;;;;5023836;28;21037;-56
2023/12/29 02:49:03;;;;;;;1.80;1.23;;;8.80;99.90;;;;;;5031099;28;20271;-56
2023/12/29 02:51:31;;;;;;;1.30;1.30;;;8.80;99.90;;;;;;5030743;28;20225;-56
2023/12/29 02:53:59;;;;;;;2.35;1.13;;;8.80;99.90;;;;;;5030891;28;20243;-56
2023/12/29 02:56:27;;;;;;;1.95;1.20;;;8.80;99.90;;;;;;5030740;28;20202;-56
2023/12/29 02:58:55;;;;;;;1.98;1.20;;;8.70;99.90;;;;;;5030932;28;20249;-57
2023/12/29 03:01:24;;;;;;;1.42;1.27;;;8.70;99.90;;;;;;5030496;28;20296;-62
2023/12/29 03:03:52;;;;;;;2.55;1.50;;;8.70;99.90;;;;;;5030141;28;20661;-55
2023/12/29 03:06:20;;;;;;;1.25;1.15;;;8.60;99.90;;;;;;5030206;28;20233;-54
2023/12/29 03:08:48;;;;;;;1.65;1.35;;;8.60;99.90;;;;;;5031196;28;20681;-55
2023/12/29 03:11:16;;;;;;;3.10;1.15;;;8.60;99.90;;;;;;5030804;28;20253;-55
2023/12/29 03:13:44;;;;;;;4.20;1.30;;;8.50;99.90;;;;;;5031177;28;20227;-56
2023/12/29 03:16:12;;;;;;;6.93;1.42;;;8.40;99.90;;;;;;5030459;28;20297;-60
2023/12/29 03:18:41;;;;;;;1.27;1.17;;;8.40;99.90;;;;;;5030863;28;20206;-56
2023/12/29 03:21:10;;;;;;;3.33;1.63;;;8.50;99.90;;;;;;5030585;28;20215;-57
2023/12/29 03:23:38;;;;;;;1.42;1.02;;;8.50;99.90;;;;;;5022993;28;20280;-56
2023/12/29 03:26:06;;;;;;;1.52;1.10;;;8.60;99.90;;;;;;5030273;28;20307;-58
2023/12/29 03:28:33;;;;;;;1.30;1.20;;;8.70;99.90;;;;;;5030615;28;20276;-59
2023/12/29 03:31:01;;;;;;;3.33;1.40;;;8.80;99.90;;;;;;5030477;28;20261;-56
2023/12/29 03:33:29;;;;;;;3.45;1.00;;;8.80;99.90;;;;;;5023703;28;20266;-58
2023/12/29 03:35:59;;;;;;;0.85;0.85;;;8.80;99.90;;;;;;5030224;28;20210;-58
2023/12/29 03:38:26;;;;;;;4.35;1.35;;;8.90;99.90;;;;;;5030705;28;20222;-57
2023/12/29 03:40:54;;;;;;;2.20;1.30;;;8.80;99.90;;;;;;5030738;28;20238;-57
2023/12/29 03:43:22;;;;;;;3.00;1.00;;;8.80;99.90;;;;;;5033860;28;20242;-57
2023/12/29 03:45:50;;;;;;;2.25;1.10;;;8.80;99.90;;;;;;5034345;28;20667;-59
2023/12/29 03:48:18;;;;;;;2.05;1.35;;;8.70;99.90;;;;;;5033791;28;20830;-55
2023/12/29 03:50:46;;;;;;;2.15;1.30;;;8.60;99.90;;;;;;5034546;28;20465;-55
2023/12/29 03:53:15;;;;;;;3.08;1.02;;;8.60;99.90;;;;;;5047984;22;20262;-59
2023/12/29 03:55:44;;;;;;;0.90;0.90;;;8.60;99.90;;;;;;5023508;28;20648;-58
2023/12/29 03:58:11;;;;;;;3.78;1.02;;;8.60;99.90;;;;;;5015724;28;20630;-59
2023/12/29 04:00:41;;;;;;;2.13;1.38;;;8.60;99.90;;;;;;5016110;28;20215;-58
2023/12/29 04:03:09;;;;;;;1.35;1.02;;;8.60;99.90;;;;;;5017249;28;20231;-60
2023/12/29 04:05:37;;;;;;;2.17;1.17;;;8.50;99.90;;;;;;5025811;28;20245;-60
2023/12/29 04:08:06;;;;;;;2.92;0.93;;;8.50;99.90;;;;;;5033535;28;20222;-59
2023/12/29 04:10:35;;;;;;;2.85;1.17;;;8.50;99.90;;;;;;5033807;28;20260;-59
2023/12/29 04:13:03;;;;;;;4.07;1.02;;;8.50;99.90;;;;;;5033242;28;20203;-60
2023/12/29 04:15:31;;;;;;;2.58;1.42;;;8.50;99.90;;;;;;5033729;28;20656;-59
2023/12/29 04:17:59;;;;;;;2.78;1.05;;;8.50;99.90;;;;;;5033501;28;20580;-59
2023/12/29 04:20:27;;;;;;;3.75;1.02;;;8.40;99.90;;;;;;5033642;28;20211;-58
2023/12/29 04:22:55;;;;;;;2.47;0.85;;;8.40;99.90;;;;;;5033518;28;20242;-58
2023/12/29 04:25:23;;;;;;;1.75;0.90;;;8.40;99.90;;;;;;5033473;28;20802;-59
2023/12/29 04:27:52;;;;;;;3.72;1.33;;;8.40;99.90;;;;;;5032849;28;20300;-60
2023/12/29 04:30:20;;;;;;;6.05;1.40;;;8.40;99.90;;;;;;5033656;28;20260;-57
2023/12/29 04:32:48;;;;;;;1.75;1.17;;;8.40;99.90;;;;;;5025994;28;20679;-59
2023/12/29 04:35:16;;;;;;;3.47;1.10;;;8.40;99.90;;;;;;5033404;28;20210;-60
2023/12/29 04:37:45;;;;;;;1.20;0.90;;;8.40;99.90;;;;;;5033033;28;20260;-57
2023/12/29 04:40:13;;;;;;;1.30;1.00;;;8.40;99.90;;;;;;5033180;28;20290;-58
2023/12/29 04:42:41;;;;;;;0.85;0.68;;;8.40;99.90;;;;;;5032870;28;20234;-58
2023/12/29 04:45:11;;;;;;;3.72;1.10;;;8.50;99.90;;;;;;5033120;28;20743;-58
2023/12/29 04:47:39;;;;;;;3.03;1.23;;;8.50;99.90;;;;;;5032340;28;20254;-58
2023/12/29 04:50:08;;;;;;;1.67;1.23;;;8.50;99.90;;;;;;5030225;28;20211;-60
2023/12/29 04:52:36;;;;;;;4.25;1.10;;;8.50;99.90;;;;;;5026555;28;20207;-58
2023/12/29 04:55:04;;;;;;;1.08;0.98;;;8.60;99.90;;;;;;5031986;28;20230;-59
2023/12/29 04:57:32;;;;;;;1.48;1.00;;;8.60;99.90;;;;;;5032721;28;20235;-60
2023/12/29 05:00:01;;;;;;;2.58;1.00;;;8.60;99.90;;;;;;5032889;28;20237;-58
2023/12/29 05:02:30;;;;;;;3.70;1.08;;;8.60;99.90;;;;;;5030990;28;20214;-59
2023/12/29 05:04:58;;;;;;;1.83;0.77;;;8.60;99.90;;;;;;5028959;28;20317;-60
2023/12/29 05:07:27;;;;;;;1.13;0.85;;;8.60;99.90;;;;;;5030007;28;20242;-61
2023/12/29 05:09:55;;;;;;;3.75;1.02;;;8.60;99.90;;;;;;5032624;28;20648;-60
2023/12/29 05:12:23;;;;;;;3.75;0.93;;;8.60;99.90;;;;;;5032702;28;20210;-60
2023/12/29 05:14:50;;;;;;;1.27;0.75;;;8.60;99.90;;;;;;5032568;28;20254;-59
2023/12/29 05:17:18;;;;;;;1.83;0.90;;;8.70;99.90;;;;;;5032297;28;20237;-60
2023/12/29 05:19:47;;;;;;;4.30;1.10;;;8.70;99.90;;;;;;5032341;28;20293;-59
2023/12/29 05:22:17;;;;;;;2.42;1.20;;;8.70;99.90;;;;;;5032522;28;20210;-58
2023/12/29 05:24:45;;;;;;;1.40;1.13;;;8.70;99.90;;;;;;5032587;28;20249;-58
2023/12/29 05:27:13;;;;;;;1.95;1.00;;;8.70;99.90;;;;;;5032012;28;20227;-58
2023/12/29 05:29:42;;;;;;;1.30;1.20;;;8.70;99.90;;;;;;5029409;28;20211;-58
2023/12/29 05:32:10;;;;;;;1.17;0.90;;;8.60;99.90;;;;;;5023954;28;20294;-59
2023/12/29 05:34:38;;;;;;;1.70;1.13;;;8.60;99.90;;;;;;5029656;28;20222;-58
2023/12/29 05:37:07;;;;;;;1.90;1.10;;;8.70;99.90;;;;;;5018516;28;20588;-58
2023/12/29 05:39:35;;;;;;;1.92;1.00;;;8.70;99.90;;;;;;5025747;28;20207;-59
2023/12/29 05:42:03;;;;;;;3.03;1.30;;;8.70;99.90;;;;;;5026049;28;20211;-59
2023/12/29 05:44:31;;;;;;;5.50;1.23;;;8.70;99.90;;;;;;5029875;28;20280;-60
2023/12/29 05:46:59;;;;;;;2.33;0.90;;;8.70;99.90;;;;;;5031611;28;20210;-59
2023/12/29 05:49:27;;;;;;;1.38;1.27;;;8.70;99.90;;;;;;5026395;28;20231;-59
2023/12/29 05:51:55;;;;;;;1.38;1.00;;;8.70;99.90;;;;;;5024374;28;20297;-59
2023/12/29 05:54:24;;;;;;;1.10;1.05;;;8.70;99.90;;;;;;5026671;28;20719;-60
2023/12/29 05:56:52;;;;;;;1.05;0.98;;;8.60;99.90;;;;;;5023427;28;20210;-58
2023/12/29 05:59:20;;;;;;;2.95;1.27;;;8.70;99.90;;;;;;5026214;28;20257;-58
2023/12/29 06:01:48;;;;;;;2.88;1.20;;;8.70;99.90;;;;;;5026423;28;20246;-59
2023/12/29 06:04:16;;;;;;;1.67;0.85;;;8.60;99.90;;;;;;5031866;28;20301;-59
2023/12/29 06:06:44;;;;;;;1.83;0.93;;;8.70;99.90;;;;;;5031202;28;20236;-60
2023/12/29 06:09:12;;;;;;;1.48;1.23;;;8.70;99.90;;;;;;5031638;28;20211;-60
2023/12/29 06:11:41;;;;;;;1.05;1.02;;;8.70;99.90;;;;;;5028922;28;20294;-58
2023/12/29 06:14:09;;;;;;;1.38;1.20;;;8.70;99.90;;;;;;5024391;28;20640;-58
2023/12/29 06:16:37;;;;;;;1.08;0.93;;;8.70;99.90;;;;;;5021922;28;20265;-60
2023/12/29 06:19:06;;;;;;;2.30;0.90;;;8.70;99.90;;;;;;5020651;28;20634;-60
2023/12/29 06:21:34;;;;;;;4.47;1.08;;;8.70;99.90;;;;;;5024964;28;20260;-59
2023/12/29 06:24:02;;;;;;;1.88;1.10;;;8.80;99.90;;;;;;5030972;28;20234;-60
2023/12/29 06:26:29;;;;;;;1.05;0.95;;;8.80;99.90;;;;;;5021117;28;20294;-60
2023/12/29 06:28:59;;;;;;;2.85;1.23;;;8.80;99.90;;;;;;5023188;28;20222;-59
2023/12/29 06:31:26;;;;;;;3.47;1.08;;;8.90;99.90;;;;;;5021850;28;20202;-59
2023/12/29 06:33:54;;;;;;;2.05;1.10;;;8.90;99.90;;;;;;5023292;28;20223;-59
2023/12/29 06:36:23;;;;;;;3.85;1.38;;;8.90;99.90;;;;;;5029645;28;20198;-58
2023/12/29 06:38:52;;;;;;;1.65;1.02;;;8.90;99.90;;;;;;5029599;28;20282;-59
2023/12/29 06:41:20;;;;;;;2.83;1.42;;;9.00;99.90;;;;;;5030767;28;20234;-60
2023/12/29 06:43:47;;;;;;;2.40;1.35;;;9.00;99.90;;;;;;5022246;28;20732;-57
2023/12/29 06:46:17;;;;;;;1.98;1.25;;;9.00;99.90;;;;;;5023862;28;20298;-59
2023/12/29 06:48:44;;;;;;;1.55;1.10;;;9.10;99.90;;;;;;5030298;28;20230;-58
2023/12/29 06:51:17;;;;;;;2.00;1.20;;;9.10;99.90;;;;;;5030921;28;20233;-61
2023/12/29 06:53:46;;;;;;;1.30;1.20;;;9.20;99.90;;;;;;5026925;28;20374;-60
2023/12/29 06:56:15;;;;;;;2.55;1.13;;;9.20;99.90;;;;;;5024580;28;20207;-58
2023/12/29 06:58:42;;;;;;;1.67;1.55;;;9.30;99.90;;;;;;5020372;28;20207;-60
2023/12/29 07:01:10;;;;;;;2.38;0.95;;;9.30;99.90;;;;;;5028863;28;20230;-62
2023/12/29 07:03:40;;;;;;;2.28;0.90;;;9.30;99.90;;;;;;5018432;28;20233;-61
2023/12/29 07:06:08;;;;;;;2.80;1.58;;;9.40;99.90;;;;;;5024921;28;20592;-66
2023/12/29 07:08:37;;;;;;;1.40;1.25;;;9.40;99.90;;;;;;5022745;28;20237;-62
2023/12/29 07:11:04;;;;;;;3.97;1.27;;;9.40;99.90;;;;;;5030982;28;20226;-62
2023/12/29 07:13:32;;;;;;;4.03;1.30;;;9.30;99.90;;;;;;5024887;28;20317;-63
2023/12/29 07:16:00;;;;;;;6.85;1.63;;;9.30;99.90;;;;;;5013308;28;20668;-61
2023/12/29 07:18:28;;;;;;;1.85;1.00;;;9.30;99.90;;;;;;5029557;28;20730;-60
2023/12/29 07:20:57;;;;;;;2.35;1.35;;;9.30;99.90;;;;;;5024722;28;20210;-62
2023/12/29 07:23:25;;;;;;;3.25;1.38;;;9.30;99.90;;;;;;5026038;28;20223;-62
2023/12/29 07:25:53;;;;;;;1.23;1.13;;;9.30;99.90;;;;;;5025948;28;20248;-62
2023/12/29 07:28:21;;;;;;;1.60;1.20;;;9.30;99.90;;;;;;5024699;28;20792;-63
2023/12/29 07:30:49;;;;;;;1.40;1.30;;;9.40;99.90;;;;;;5024839;28;20203;-62
2023/12/29 07:33:17;;;;;;;2.50;1.10;;;9.40;99.90;;;;;;5024097;28;20226;-62
2023/12/29 07:35:45;;;;;;;3.20;0.95;;;9.40;99.90;;;;;;5026941;28;20309;-60
2023/12/29 07:38:15;;;;;;;0.60;0.60;;;9.40;99.90;;;;;;5024188;28;20671;-63
2023/12/29 07:40:43;;;;;;;5.20;1.23;;;9.50;99.90;;;;;;5033604;28;20297;-61
2023/12/29 07:43:10;;;;;;;1.92;1.10;;;9.60;99.90;;;;;;5025766;28;20743;-61
2023/12/29 07:45:38;;;;;;;5.55;0.90;;;9.70;99.90;;;;;;5028833;28;20198;-61
2023/12/29 07:48:07;;;;;;;3.13;1.00;;;9.70;99.90;;;;;;5032625;28;20203;-64
2023/12/29 07:50:38;;;;;;;1.25;1.02;;;9.70;99.90;;;;;;5020267;28;20736;-61
2023/12/29 07:53:06;;;;;;;4.55;1.00;;;9.70;99.90;;;;;;5033349;28;20582;-62
2023/12/29 07:55:38;;;;;;;3.05;1.23;;;9.80;99.90;;;;;;5025795;28;20207;-62
2023/12/29 07:58:06;;;;;;;4.13;0.95;;;9.90;99.90;;;;;;5032643;28;20613;-62
2023/12/29 08:00:34;;;;;;;0.88;0.80;;;9.90;99.90;;;;;;5031533;28;20703;-62
2023/12/29 08:03:02;;;;;;;1.02;0.90;;;9.90;99.90;;;;;;5033365;28;20710;-62
2023/12/29 08:05:30;;;;;;;3.17;0.70;;;9.90;99.90;;;;;;5033860;28;20230;-63
2023/12/29 08:07:58;;;;;;;2.97;0.88;;;10.00;99.90;;;;;;5025314;28;20211;-64
2023/12/29 08:10:26;;;;;;;2.90;0.95;;;10.00;99.90;;;;;;5029733;28;20218;-66
2023/12/29 08:12:55;;;;;;;5.05;1.00;;;10.00;99.90;;;;;;5033819;28;20203;-61
2023/12/29 08:15:23;;;;;;;2.60;0.90;;;10.00;99.90;;;;;;5033781;28;20202;-61
2023/12/29 08:17:51;;;;;;;2.08;0.70;;;10.00;99.90;;;;;;5033345;28;20639;-62
2023/12/29 08:20:21;;;;;;;2.63;0.90;;;10.00;99.90;;;;;;5034090;28;20301;-61
2023/12/29 08:22:48;;;;;;;1.63;1.02;;;10.00;99.90;;;;;;5033308;28;20697;-62
2023/12/29 08:25:16;;;;;;;2.20;0.82;;;10.00;99.90;;;;;;5033412;28;20211;-62
2023/12/29 08:27:44;;;;;;;2.15;0.80;;;10.00;99.90;;;;;;5033063;28;20637;-62
2023/12/29 08:30:14;;;;;;;2.42;1.00;;;10.10;99.90;;;;;;5023658;28;20253;-62
2023/12/29 08:32:42;;;;;;;0.95;0.80;;;10.10;99.90;;;;;;5031574;28;20289;-65
2023/12/29 08:35:10;;;;;;;2.08;0.90;;;10.10;99.90;;;;;;5032883;28;20387;-61
2023/12/29 08:37:38;;;;;;;3.83;1.00;;;10.10;99.90;;;;;;5032599;28;20203;-63
2023/12/29 08:40:07;;;;;;;4.70;1.15;;;10.10;99.90;;;;;;5033319;28;20205;-61
2023/12/29 08:42:35;;;;;;;2.08;0.75;;;10.10;99.90;;;;;;5032360;28;20245;-62
2023/12/29 08:45:04;;;;;;;2.03;0.77;;;10.10;99.90;;;;;;5021757;28;20708;-62
2023/12/29 08:47:35;;;;;;;2.88;0.70;;;10.20;99.90;;;;;;5028373;28;20202;-62
2023/12/29 08:50:04;;;;;;;2.50;0.95;;;10.20;99.90;;;;;;5025531;28;20254;-64
2023/12/29 08:52:33;;;;;;;4.28;1.13;;;10.20;99.90;;;;;;5024512;28;20203;-65
2023/12/29 08:55:00;;;;;;;4.10;1.00;;;10.20;99.90;;;;;;5032604;28;20726;-65
2023/12/29 08:57:28;;;;;;;2.60;0.82;;;10.20;99.90;;;;;;5032626;28;20213;-61
2023/12/29 08:59:56;;;;;;;5.00;1.00;;;10.20;99.90;;;;;;5032814;28;20195;-62
2023/12/29 09:02:24;;;;;;;4.70;0.80;;;10.20;99.90;;;;;;5032667;28;20281;-62
2023/12/29 09:04:53;;;;;;;1.95;0.73;;;10.20;99.90;;;;;;5032514;28;21672;-61
2023/12/29 09:07:21;;;;;;;0.90;0.65;;;10.20;99.90;;;;;;5032591;28;20245;-64
2023/12/29 09:09:49;;;;;;;2.92;0.80;;;10.20;99.90;;;;;;5032555;28;20226;-61
2023/12/29 09:12:17;;;;;;;5.68;1.13;;;10.20;99.90;;;;;;5032730;28;20202;-61
2023/12/29 09:14:44;;;;;;;0.85;0.60;;;10.20;99.90;;;;;;5020555;28;20262;-61
2023/12/29 09:17:12;;;;;;;0.70;0.70;;;10.20;99.90;;;;;;5032040;28;20242;-61
2023/12/29 09:19:40;;;;;;;6.43;1.00;;;10.20;99.90;;;;;;5032309;28;20657;-61
2023/12/29 09:22:12;;;;;;;1.48;0.70;;;10.20;99.90;;;;;;5032361;28;20289;-61
2023/12/29 09:24:40;;;;;;;3.08;0.85;;;10.30;99.90;;;;;;5032434;28;20222;-61
2023/12/29 09:27:08;;;;;;;2.53;0.80;;;10.30;99.90;;;;;;5032008;28;20215;-62
2023/12/29 09:29:37;;;;;;;5.40;0.82;;;10.30;99.90;;;;;;5031978;28;20223;-61
2023/12/29 09:32:05;;;;;;;2.50;0.80;;;10.30;99.90;;;;;;5028024;28;20204;-61
2023/12/29 09:34:33;;;;;;;2.33;0.98;;;10.30;99.90;;;;;;5028746;28;20222;-61
2023/12/29 09:37:01;;;;;;;3.00;1.15;;;10.40;99.90;;;;;;5020234;28;20581;-62
2023/12/29 09:39:31;;;;;;;1.23;1.13;;;10.40;99.90;;;;;;5031685;28;20238;-61
2023/12/29 09:42:00;;;;;;;1.35;0.80;;;10.40;99.90;;;;;;5031642;28;20238;-62
2023/12/29 09:44:29;;;;;;;1.60;0.80;;;10.50;99.90;;;;;;5031711;28;20644;-63
2023/12/29 09:46:56;;;;;;;3.13;1.08;;;10.40;99.90;;;;;;5031477;28;20699;-61
2023/12/29 09:49:24;;;;;;;1.73;1.10;;;10.40;99.90;;;;;;5031807;28;20581;-62
2023/12/29 09:51:52;;;;;;;3.03;1.00;;;10.50;99.90;;;;;;5031731;28;20225;-62
2023/12/29 09:54:20;;;;;;;1.27;1.05;;;10.50;99.90;;;;;;5053397;22;20710;-59
2023/12/29 09:56:50;;;;;;;1.20;1.00;;;10.50;99.90;;;;;;5046628;28;20255;-59
2023/12/29 09:59:18;;;;;;;1.13;0.90;;;10.60;99.90;;;;;;5040917;28;20297;-60
2023/12/29 10:01:45;;;;;;;2.50;0.80;;;10.60;99.90;;;;;;5049586;28;20487;-59
2023/12/29 10:04:14;;;;;;;1.27;0.77;;;10.70;99.90;;;;;;5051729;28;20272;-60
2023/12/29 10:06:45;;;;;;;1.58;0.98;;;10.70;99.90;;;;;;5046526;28;20301;-59
2023/12/29 10:09:16;;;;;;;1.75;0.75;;;10.70;99.90;;;;;;5044936;28;20283;-59
2023/12/29 10:11:44;;;;;;;2.65;0.70;;;10.80;99.90;;;;;;5044568;28;20503;-59
2023/12/29 10:14:19;;;;;;;4.18;0.80;;;10.80;99.90;;;;;;5051534;28;20316;-59
2023/12/29 10:16:51;;;;;;;2.65;0.70;;;10.80;99.90;;;;;;5046483;28;20848;-59
2023/12/29 10:19:24;;;;;;;2.97;0.60;;;10.90;99.90;;;;;;5042750;28;20280;-59
2023/12/29 10:21:56;;;;;;;3.53;0.70;;;10.90;99.90;;;;;;5046260;28;20206;-59
2023/12/29 10:24:24;;;;;;;3.20;0.70;;;10.90;99.90;;;;;;5045041;28;20232;-60
2023/12/29 10:26:53;;;;;;;1.25;0.70;;;10.90;99.90;;;;;;5044720;28;20210;-59
2023/12/29 10:29:22;;;;;;;3.53;0.63;;;10.90;99.90;;;;;;5047060;28;20205;-59
2023/12/29 10:31:50;;;;;;;3.30;0.70;;;10.90;99.90;;;;;;5040598;28;20304;-59
2023/12/29 10:34:19;;;;;;;1.95;0.77;;;10.90;99.90;;;;;;5050664;28;20362;-59
2023/12/29 10:36:50;;;;;;;2.15;0.60;;;11.00;99.90;;;;;;5050216;28;20602;-59
2023/12/29 10:39:18;;;;;;;0.95;0.70;;;10.90;99.90;;;;;;5056104;28;20280;-59
2023/12/29 10:41:46;;;;;;;1.45;0.60;;;11.00;99.90;;;;;;5050750;28;20301;-58
2023/12/29 10:44:13;;;;;;;2.80;0.68;;;10.90;99.90;;;;;;5049885;28;20665;-59
2023/12/29 10:46:43;;;;;;;2.00;0.80;;;10.90;99.90;;;;;;5057641;28;20296;-59
2023/12/29 10:49:11;;;;;;;4.53;0.50;;;11.00;99.90;;;;;;5047962;28;20202;-59
2023/12/29 10:51:39;;;;;;;2.88;1.10;;;11.00;99.90;;;;;;5049872;28;20283;-59
2023/12/29 10:54:07;;;;;;;3.28;0.70;;;11.00;99.90;;;;;;5050869;28;20236;-59
2023/12/29 10:56:35;;;;;;;6.82;0.90;;;10.90;99.90;;;;;;5051605;28;20210;-59
2023/12/29 10:59:04;;;;;;;2.15;0.50;;;10.90;99.90;;;;;;5053353;28;20229;-59
2023/12/29 11:01:32;;;;;;;0.95;0.80;;;10.90;99.90;;;;;;5054410;28;20682;-59
2023/12/29 11:04:02;;;;;;;2.70;0.47;;;11.00;99.90;;;;;;5054573;28;20308;-59
2023/12/29 11:06:31;;;;;;;0.57;0.57;;;10.90;99.90;;;;;;5055769;28;20213;-60
2023/12/29 11:08:58;;;;;;;1.00;0.70;;;10.90;99.90;;;;;;5055594;28;20206;-60
2023/12/29 11:11:26;;;;;;;2.15;0.82;;;10.90;99.90;;;;;;5051554;28;20225;-60
2023/12/29 11:13:54;;;;;;;5.13;0.65;;;10.90;99.90;;;;;;5054345;28;20253;-60
2023/12/29 11:16:22;;;;;;;0.70;0.70;;;10.90;99.90;;;;;;5055010;28;20198;-59
2023/12/29 11:18:51;;;;;;;0.60;0.60;;;10.90;99.90;;;;;;5054428;28;20634;-59
2023/12/29 11:21:21;;;;;;;4.95;0.88;;;11.00;99.90;;;;;;5054851;28;20202;-59
2023/12/29 11:23:49;;;;;;;3.30;0.93;;;11.00;99.90;;;;;;5054467;28;20254;-59
2023/12/29 11:26:17;;;;;;;1.70;0.73;;;11.00;99.90;;;;;;5054617;28;20292;-59
2023/12/29 11:28:48;;;;;;;2.72;0.57;;;11.00;99.90;;;;;;5053864;28;20263;-59
2023/12/29 11:31:16;;;;;;;2.05;0.65;;;11.00;99.90;;;;;;5054738;28;20283;-60
2023/12/29 11:33:46;;;;;;;1.45;0.70;;;11.00;99.90;;;;;;5053878;28;20230;-59
2023/12/29 11:36:16;;;;;;;1.27;0.80;;;11.00;99.90;;;;;;5054437;28;20198;-59
2023/12/29 11:39:00;;;;;;;3.05;1.30;;;11.10;99.90;;;;;;5052414;28;20608;-59
2023/12/29 11:41:32;;;;;;;4.15;0.77;;;11.10;99.90;;;;;;5053129;28;20247;-60
2023/12/29 11:44:01;;;;;;;2.15;0.88;;;11.10;99.90;;;;;;5056598;28;20226;-59
2023/12/29 11:46:38;;;;;;;4.15;0.80;;;11.00;99.90;;;;;;5054100;28;20205;-59
2023/12/29 11:49:06;;;;;;;1.88;0.70;;;11.00;99.90;;;;;;5054209;28;20284;-59
2023/12/29 11:51:35;;;;;;;5.85;0.80;;;11.00;99.90;;;;;;5054168;28;20222;-60
2023/12/29 11:54:05;;;;;;;3.40;0.75;;;10.90;99.90;;;;;;5053787;28;20715;-59
2023/12/29 11:56:35;;;;;;;2.13;0.88;;;11.00;99.90;;;;;;5048570;28;20206;-59
2023/12/29 11:59:19;;;;;;;8.90;0.70;;;10.90;99.90;;;;;;5053709;28;20213;-59
2023/12/29 12:01:47;;;;;;;1.70;0.60;;;11.00;99.90;;;;;;5053844;28;20205;-59
2023/12/29 12:04:35;;;;;;;0.95;0.70;;;11.00;99.90;;;;;;5049492;28;20252;-59
2023/12/29 12:07:04;;;;;;;0.60;0.60;;;11.00;99.90;;;;;;5058260;28;20209;-58
2023/12/29 12:09:34;;;;;;;2.15;0.60;;;11.00;99.90;;;;;;5052608;28;20668;-60
2023/12/29 12:12:03;;;;;;;2.17;0.68;;;11.00;99.90;;;;;;5048855;28;20232;-60
2023/12/29 12:14:48;;;;;;;2.63;0.77;;;11.10;99.90;;;;;;5052141;28;20226;-59
2023/12/29 12:17:32;;;;;;;2.72;0.70;;;11.10;99.90;;;;;;5048812;28;20206;-60
2023/12/29 12:20:03;;;;;;;5.95;0.73;;;11.10;99.90;;;;;;5043488;28;20209;-59
2023/12/29 12:22:32;;;;;;;2.60;0.70;;;11.10;99.90;;;;;;5051421;28;20248;-59
2023/12/29 12:25:06;;;;;;;3.45;0.73;;;11.10;99.90;;;;;;5047055;28;20229;-59
2023/12/29 12:27:35;;;;;;;2.40;0.52;;;11.10;99.90;;;;;;5048079;28;20202;-59
2023/12/29 12:30:04;;;;;;;1.63;0.55;;;11.20;99.90;;;;;;5052922;28;20287;-59
2023/12/29 12:32:33;;;;;;;1.80;0.70;;;11.20;99.90;;;;;;5047697;28;20236;-59
2023/12/29 12:35:01;;;;;;;4.65;0.73;;;11.20;99.90;;;;;;5048549;28;20233;-58
2023/12/29 12:37:29;;;;;;;1.38;0.80;;;11.30;99.90;;;;;;5049401;28;20202;-60
2023/12/29 12:39:57;;;;;;;4.57;0.70;;;11.30;99.90;;;;;;5050204;28;20210;-60
2023/12/29 12:42:27;;;;;;;2.50;1.17;;;11.40;99.90;;;;;;5051539;28;20260;-59
2023/12/29 12:44:56;;;;;;;3.17;0.68;;;11.50;99.90;;;;;;5050984;28;20264;-59
2023/12/29 12:47:27;;;;;;;4.75;0.60;;;11.50;99.90;;;;;;5049586;28;20211;-59
2023/12/29 12:49:55;;;;;;;2.05;0.60;;;11.60;99.90;;;;;;5042832;28;20218;-59
2023/12/29 12:52:23;;;;;;;4.20;2.47;;;11.60;99.90;;;;;;5052221;28;20257;-59
2023/12/29 12:54:51;;;;;;;0.75;0.52;;;11.70;99.90;;;;;;5052582;28;20680;-59
2023/12/29 12:57:20;;;;;;;0.80;0.55;;;11.70;99.90;;;;;;5045542;28;20206;-60
2023/12/29 12:59:50;;;;;;;2.05;0.55;;;11.80;99.90;;;;;;5052272;28;20206;-60
2023/12/29 13:02:19;;;;;;;1.27;1.00;;;11.80;99.90;;;;;;5052639;28;20201;-59